Terminal Aerodrome Forecast
Issued by NWS Sterling, VA

Home | Current Version | Previous Version | Text Only | Print | Product List | Glossary On
Versions: 1 2 3 4 5 6 7 8 9 10 11 12 13 14 15 16 17 18 19 20 21 22 23 24 25 26 27
000
FTUS41 KLWX 041725
TAFIAD
TAF
KIAD 041725Z 0418/0524 26010KT P6SM VCTS BKN050CB
     FM042100 26008KT P6SM BKN050
     FM042300 32005KT P6SM BKN050
     FM050000 35006KT P6SM SCT050
     FM051200 30004KT P6SM FEW250
     FM051500 30010G18KT P6SM FEW250=

USA.gov is the U.S. government's official web portal to all federal, state and local government web resources and services.